< < Back
Terminal Aerodrome Forecast


Current Version              Previous Versions:   1  2  3  4  5  6  7  8  9  

Terminal Aerodrome Forecast

458
FTUS44 KBMX 301728
TAFANB
TAF
KANB 301728Z 3018/3118 07010G16KT P6SM SCT050
     FM310200 08003KT P6SM SKC=

Latest METAR

707
SAUS70 KWBC 302200 RRF
MTRANB
METAR KANB 302153Z AUTO 07008KT 10SM CLR 34/16 A2997 RMK AO2 SLP138
T03390156


USA.gov is the U.S. government's official web portal to all federal, state and local government web resources and services.